SLTJ Airport Information

Runway Information
Runway 13 Length 10007 ft width 148 ft
Elevation 6083 ft Threshold 0 ft Heading 124
Runway 31 Length 10007 ft Width 148 ft
Elevation 6047 ft Threshold 0 ft Heading 304
Airport Frequencies
Type APP Name TARIJA APP Frequency 119.4 MHZ
Type RDO Name TARIJA RDO Frequency 662.2 MHZ
Type TWR Name TARIJA TWR Frequency 118.1 MHZ
Airport Navaids
Type VOR-DME Name Tarija Frequency 117000 KHZ
Type NDB Name Tarija Frequency 250 KHZ
Airport Weather Information & NOTAM
ADDS - METARS form results

(1136 UTC 28 January 2021)
Data provider http://aviationweather.gov/metar/data/
 
METAR text: SLTJ 281100Z 00000KT 9999 FEW030 16/13 Q1016
Conditions at: SLTJ (TARIJA/CAPT ORIE, BO) observed 1100 UTC 28 January 2021
Temperature: 16.0°C (61°F)
Dewpoint: 13.0°C (55°F) [RH = 82%]
Pressure (altimeter): 30.00 inches Hg (1016.0 mb)
Winds: calm
Visibility: 6 or more miles (10+ km)
Ceiling: at least 12,000 feet AGL
Clouds: few clouds at 3000 feet AGL
Weather: no significant weather observed at this time